sensor_id;sensor_type;location;lat;lon;timestamp;P1;durP1;ratioP1;P2;durP2;ratioP2
63438;SDS011;49567;48.958;8.294;2023-05-10T00:00:38;1.47;;;0.20;;
63438;SDS011;49567;48.958;8.294;2023-05-10T00:03:03;1.00;;;0.30;;
63438;SDS011;49567;48.958;8.294;2023-05-10T00:05:31;0.30;;;0.30;;
63438;SDS011;49567;48.958;8.294;2023-05-10T00:07:57;0.30;;;0.20;;
63438;SDS011;49567;48.958;8.294;2023-05-10T00:10:22;0.40;;;0.13;;
63438;SDS011;49567;48.958;8.294;2023-05-10T00:12:47;1.10;;;0.30;;
63438;SDS011;49567;48.958;8.294;2023-05-10T00:15:13;3.70;;;0.27;;
63438;SDS011;49567;48.958;8.294;2023-05-10T00:17:38;0.40;;;0.40;;
63438;SDS011;49567;48.958;8.294;2023-05-10T00:20:03;1.40;;;0.40;;
63438;SDS011;49567;48.958;8.294;2023-05-10T00:22:30;0.47;;;0.30;;
63438;SDS011;49567;48.958;8.294;2023-05-10T00:24:55;2.70;;;0.40;;
63438;SDS011;49567;48.958;8.294;2023-05-10T00:27:20;0.80;;;0.20;;
63438;SDS011;49567;48.958;8.294;2023-05-10T00:29:46;1.17;;;0.20;;
63438;SDS011;49567;48.958;8.294;2023-05-10T00:32:11;2.10;;;0.20;;
63438;SDS011;49567;48.958;8.294;2023-05-10T00:34:36;3.93;;;0.30;;
63438;SDS011;49567;48.958;8.294;2023-05-10T00:37:01;0.40;;;0.30;;
63438;SDS011;49567;48.958;8.294;2023-05-10T00:39:27;2.10;;;0.30;;
63438;SDS011;49567;48.958;8.294;2023-05-10T00:41:53;1.30;;;0.38;;
63438;SDS011;49567;48.958;8.294;2023-05-10T00:44:18;0.60;;;0.33;;
63438;SDS011;49567;48.958;8.294;2023-05-10T00:46:44;1.53;;;0.30;;
63438;SDS011;49567;48.958;8.294;2023-05-10T00:49:10;2.25;;;0.50;;
63438;SDS011;49567;48.958;8.294;2023-05-10T00:51:36;1.70;;;0.22;;
63438;SDS011;49567;48.958;8.294;2023-05-10T00:54:01;0.60;;;0.33;;
63438;SDS011;49567;48.958;8.294;2023-05-10T00:56:27;0.70;;;0.50;;
63438;SDS011;49567;48.958;8.294;2023-05-10T00:58:54;0.50;;;0.50;;
63438;SDS011;49567;48.958;8.294;2023-05-10T01:01:20;0.40;;;0.40;;
63438;SDS011;49567;48.958;8.294;2023-05-10T01:03:45;0.37;;;0.37;;
63438;SDS011;49567;48.958;8.294;2023-05-10T01:06:11;0.30;;;0.30;;
63438;SDS011;49567;48.958;8.294;2023-05-10T01:08:37;0.70;;;0.40;;
63438;SDS011;49567;48.958;8.294;2023-05-10T01:11:03;0.45;;;0.40;;
63438;SDS011;49567;48.958;8.294;2023-05-10T01:15:57;0.50;;;0.50;;
63438;SDS011;49567;48.958;8.294;2023-05-10T01:18:23;3.50;;;0.55;;
63438;SDS011;49567;48.958;8.294;2023-05-10T01:20:53;0.40;;;0.40;;
63438;SDS011;49567;48.958;8.294;2023-05-10T01:23:36;2.97;;;0.60;;
63438;SDS011;49567;48.958;8.294;2023-05-10T01:26:09;0.52;;;0.52;;
63438;SDS011;49567;48.958;8.294;2023-05-10T01:31:18;0.80;;;0.80;;
63438;SDS011;49567;48.958;8.294;2023-05-10T01:34:07;1.10;;;0.60;;
63438;SDS011;49567;48.958;8.294;2023-05-10T01:39:40;4.10;;;0.50;;
63438;SDS011;49567;48.958;8.294;2023-05-10T01:42:16;1.10;;;1.00;;
63438;SDS011;49567;48.958;8.294;2023-05-10T01:44:46;0.75;;;0.75;;
63438;SDS011;49567;48.958;8.294;2023-05-10T01:47:20;1.83;;;0.80;;
63438;SDS011;49567;48.958;8.294;2023-05-10T01:49:55;0.70;;;0.70;;
63438;SDS011;49567;48.958;8.294;2023-05-10T01:52:28;1.30;;;0.80;;
63438;SDS011;49567;48.958;8.294;2023-05-10T01:55:01;1.33;;;0.90;;
63438;SDS011;49567;48.958;8.294;2023-05-10T01:57:33;1.13;;;1.13;;
63438;SDS011;49567;48.958;8.294;2023-05-10T02:00:00;1.65;;;1.15;;
63438;SDS011;49567;48.958;8.294;2023-05-10T02:02:28;1.50;;;1.40;;
63438;SDS011;49567;48.958;8.294;2023-05-10T02:04:58;2.08;;;1.33;;
63438;SDS011;49567;48.958;8.294;2023-05-10T02:07:24;1.27;;;1.27;;
63438;SDS011;49567;48.958;8.294;2023-05-10T02:09:51;2.57;;;1.30;;
63438;SDS011;49567;48.958;8.294;2023-05-10T02:12:17;1.40;;;1.30;;
63438;SDS011;49567;48.958;8.294;2023-05-10T02:14:43;1.20;;;1.20;;
63438;SDS011;49567;48.958;8.294;2023-05-10T02:17:10;1.02;;;1.02;;
63438;SDS011;49567;48.958;8.294;2023-05-10T02:19:37;1.23;;;1.20;;
63438;SDS011;49567;48.958;8.294;2023-05-10T02:22:05;2.25;;;1.38;;
63438;SDS011;49567;48.958;8.294;2023-05-10T02:24:33;1.77;;;1.20;;
63438;SDS011;49567;48.958;8.294;2023-05-10T02:26:59;1.50;;;1.40;;
63438;SDS011;49567;48.958;8.294;2023-05-10T02:29:27;1.90;;;1.23;;
63438;SDS011;49567;48.958;8.294;2023-05-10T02:31:54;1.80;;;1.70;;
63438;SDS011;49567;48.958;8.294;2023-05-10T02:34:23;1.42;;;1.40;;
63438;SDS011;49567;48.958;8.294;2023-05-10T02:36:50;1.30;;;1.20;;
63438;SDS011;49567;48.958;8.294;2023-05-10T02:39:17;4.25;;;1.52;;
63438;SDS011;49567;48.958;8.294;2023-05-10T02:41:44;1.10;;;1.10;;
63438;SDS011;49567;48.958;8.294;2023-05-10T02:44:12;1.50;;;1.02;;
63438;SDS011;49567;48.958;8.294;2023-05-10T02:46:40;1.23;;;1.10;;
63438;SDS011;49567;48.958;8.294;2023-05-10T02:49:05;2.27;;;1.50;;
63438;SDS011;49567;48.958;8.294;2023-05-10T02:51:32;1.30;;;1.30;;
63438;SDS011;49567;48.958;8.294;2023-05-10T02:54:33;1.60;;;1.50;;
63438;SDS011;49567;48.958;8.294;2023-05-10T02:56:56;1.30;;;1.20;;
63438;SDS011;49567;48.958;8.294;2023-05-10T02:59:24;1.98;;;1.25;;
63438;SDS011;49567;48.958;8.294;2023-05-10T03:01:49;1.90;;;1.20;;
63438;SDS011;49567;48.958;8.294;2023-05-10T03:04:14;1.27;;;1.17;;
63438;SDS011;49567;48.958;8.294;2023-05-10T03:06:40;1.47;;;1.43;;
63438;SDS011;49567;48.958;8.294;2023-05-10T03:09:06;1.83;;;1.73;;
63438;SDS011;49567;48.958;8.294;2023-05-10T03:11:39;1.50;;;1.50;;
63438;SDS011;49567;48.958;8.294;2023-05-10T03:17:11;2.88;;;1.42;;
63438;SDS011;49567;48.958;8.294;2023-05-10T03:19:50;2.93;;;1.53;;
63438;SDS011;49567;48.958;8.294;2023-05-10T03:22:23;2.13;;;1.70;;
63438;SDS011;49567;48.958;8.294;2023-05-10T03:24:52;1.45;;;1.35;;
63438;SDS011;49567;48.958;8.294;2023-05-10T03:27:20;2.28;;;1.60;;
63438;SDS011;49567;48.958;8.294;2023-05-10T03:29:48;1.75;;;1.45;;
63438;SDS011;49567;48.958;8.294;2023-05-10T03:32:15;1.80;;;1.50;;
63438;SDS011;49567;48.958;8.294;2023-05-10T03:34:41;1.30;;;1.30;;
63438;SDS011;49567;48.958;8.294;2023-05-10T03:37:07;1.60;;;1.33;;
63438;SDS011;49567;48.958;8.294;2023-05-10T03:39:33;2.40;;;1.23;;
63438;SDS011;49567;48.958;8.294;2023-05-10T03:41:58;1.70;;;1.60;;
63438;SDS011;49567;48.958;8.294;2023-05-10T03:44:23;1.70;;;1.40;;
63438;SDS011;49567;48.958;8.294;2023-05-10T03:46:48;3.00;;;1.23;;
63438;SDS011;49567;48.958;8.294;2023-05-10T03:49:14;1.50;;;1.10;;
63438;SDS011;49567;48.958;8.294;2023-05-10T03:51:39;2.13;;;1.20;;
63438;SDS011;49567;48.958;8.294;2023-05-10T03:54:04;1.50;;;1.15;;
63438;SDS011;49567;48.958;8.294;2023-05-10T03:56:30;1.80;;;1.37;;
63438;SDS011;49567;48.958;8.294;2023-05-10T03:58:55;2.47;;;2.27;;
63438;SDS011;49567;48.958;8.294;2023-05-10T04:01:20;3.55;;;3.25;;
63438;SDS011;49567;48.958;8.294;2023-05-10T04:03:46;1.63;;;1.60;;
63438;SDS011;49567;48.958;8.294;2023-05-10T04:06:11;1.30;;;1.30;;
63438;SDS011;49567;48.958;8.294;2023-05-10T04:08:36;3.13;;;1.25;;
63438;SDS011;49567;48.958;8.294;2023-05-10T04:11:09;1.17;;;1.17;;
63438;SDS011;49567;48.958;8.294;2023-05-10T04:13:36;3.05;;;1.00;;
63438;SDS011;49567;48.958;8.294;2023-05-10T04:16:01;3.58;;;1.05;;
63438;SDS011;49567;48.958;8.294;2023-05-10T04:18:27;1.77;;;1.07;;
63438;SDS011;49567;48.958;8.294;2023-05-10T04:20:52;2.00;;;1.10;;
63438;SDS011;49567;48.958;8.294;2023-05-10T04:23:18;1.13;;;1.03;;
63438;SDS011;49567;48.958;8.294;2023-05-10T04:25:43;1.27;;;1.27;;
63438;SDS011;49567;48.958;8.294;2023-05-10T04:28:08;1.37;;;1.10;;
63438;SDS011;49567;48.958;8.294;2023-05-10T04:30:33;1.23;;;1.17;;
63438;SDS011;49567;48.958;8.294;2023-05-10T04:32:59;1.60;;;1.20;;
63438;SDS011;49567;48.958;8.294;2023-05-10T04:35:25;1.20;;;1.20;;
63438;SDS011;49567;48.958;8.294;2023-05-10T04:37:51;2.58;;;1.20;;
63438;SDS011;49567;48.958;8.294;2023-05-10T04:40:16;1.23;;;1.00;;
63438;SDS011;49567;48.958;8.294;2023-05-10T04:42:42;1.45;;;1.35;;
63438;SDS011;49567;48.958;8.294;2023-05-10T04:45:08;3.17;;;1.50;;
63438;SDS011;49567;48.958;8.294;2023-05-10T04:47:34;4.07;;;1.60;;
63438;SDS011;49567;48.958;8.294;2023-05-10T04:49:59;2.13;;;1.60;;
63438;SDS011;49567;48.958;8.294;2023-05-10T04:52:25;2.67;;;1.70;;
63438;SDS011;49567;48.958;8.294;2023-05-10T04:54:50;2.83;;;2.55;;
63438;SDS011;49567;48.958;8.294;2023-05-10T04:57:16;5.60;;;2.43;;
63438;SDS011;49567;48.958;8.294;2023-05-10T04:59:41;2.10;;;2.00;;
63438;SDS011;49567;48.958;8.294;2023-05-10T05:02:07;2.27;;;1.60;;
63438;SDS011;49567;48.958;8.294;2023-05-10T05:04:32;1.63;;;1.53;;
63438;SDS011;49567;48.958;8.294;2023-05-10T05:06:58;1.90;;;1.80;;
63438;SDS011;49567;48.958;8.294;2023-05-10T05:09:23;2.00;;;1.90;;
63438;SDS011;49567;48.958;8.294;2023-05-10T05:11:48;2.73;;;1.47;;
63438;SDS011;49567;48.958;8.294;2023-05-10T05:14:13;1.80;;;1.60;;
63438;SDS011;49567;48.958;8.294;2023-05-10T05:16:39;2.17;;;1.60;;
63438;SDS011;49567;48.958;8.294;2023-05-10T05:19:04;2.30;;;1.70;;
63438;SDS011;49567;48.958;8.294;2023-05-10T05:21:29;2.03;;;1.20;;
63438;SDS011;49567;48.958;8.294;2023-05-10T05:23:55;7.80;;;1.73;;
63438;SDS011;49567;48.958;8.294;2023-05-10T05:26:20;1.90;;;1.70;;
63438;SDS011;49567;48.958;8.294;2023-05-10T05:28:46;3.90;;;1.43;;
63438;SDS011;49567;48.958;8.294;2023-05-10T05:31:13;2.38;;;1.80;;
63438;SDS011;49567;48.958;8.294;2023-05-10T05:33:38;2.10;;;1.43;;
63438;SDS011;49567;48.958;8.294;2023-05-10T05:36:04;2.23;;;1.47;;
63438;SDS011;49567;48.958;8.294;2023-05-10T05:38:30;1.40;;;1.30;;
63438;SDS011;49567;48.958;8.294;2023-05-10T05:40:56;3.50;;;1.47;;
63438;SDS011;49567;48.958;8.294;2023-05-10T05:43:27;1.40;;;1.30;;
63438;SDS011;49567;48.958;8.294;2023-05-10T05:45:52;1.33;;;1.23;;
63438;SDS011;49567;48.958;8.294;2023-05-10T05:48:18;1.33;;;1.20;;
63438;SDS011;49567;48.958;8.294;2023-05-10T05:50:44;1.40;;;1.00;;
63438;SDS011;49567;48.958;8.294;2023-05-10T05:53:10;1.13;;;1.02;;
63438;SDS011;49567;48.958;8.294;2023-05-10T05:55:36;1.10;;;1.10;;
63438;SDS011;49567;48.958;8.294;2023-05-10T05:58:01;1.00;;;1.00;;
63438;SDS011;49567;48.958;8.294;2023-05-10T06:00:26;1.50;;;0.97;;
63438;SDS011;49567;48.958;8.294;2023-05-10T06:02:51;1.00;;;1.00;;
63438;SDS011;49567;48.958;8.294;2023-05-10T06:05:17;0.87;;;0.87;;
63438;SDS011;49567;48.958;8.294;2023-05-10T06:07:42;1.60;;;1.00;;
63438;SDS011;49567;48.958;8.294;2023-05-10T06:10:08;1.33;;;1.20;;
63438;SDS011;49567;48.958;8.294;2023-05-10T06:12:34;1.50;;;1.00;;
63438;SDS011;49567;48.958;8.294;2023-05-10T06:14:59;1.03;;;1.03;;
63438;SDS011;49567;48.958;8.294;2023-05-10T06:17:24;1.60;;;1.50;;
63438;SDS011;49567;48.958;8.294;2023-05-10T06:19:50;1.23;;;1.20;;
63438;SDS011;49567;48.958;8.294;2023-05-10T06:22:15;1.10;;;1.10;;
63438;SDS011;49567;48.958;8.294;2023-05-10T06:24:41;1.33;;;1.23;;
63438;SDS011;49567;48.958;8.294;2023-05-10T06:27:06;2.93;;;1.47;;
63438;SDS011;49567;48.958;8.294;2023-05-10T06:29:32;1.27;;;1.13;;
63438;SDS011;49567;48.958;8.294;2023-05-10T06:31:57;2.00;;;1.20;;
63438;SDS011;49567;48.958;8.294;2023-05-10T06:34:23;1.45;;;1.30;;
63438;SDS011;49567;48.958;8.294;2023-05-10T06:36:48;1.63;;;1.20;;
63438;SDS011;49567;48.958;8.294;2023-05-10T06:39:14;1.47;;;1.40;;
63438;SDS011;49567;48.958;8.294;2023-05-10T06:41:39;1.23;;;1.23;;
63438;SDS011;49567;48.958;8.294;2023-05-10T06:44:04;3.60;;;1.40;;
63438;SDS011;49567;48.958;8.294;2023-05-10T06:46:29;2.47;;;0.90;;
63438;SDS011;49567;48.958;8.294;2023-05-10T06:48:55;1.63;;;1.30;;
63438;SDS011;49567;48.958;8.294;2023-05-10T06:51:20;3.47;;;1.20;;
63438;SDS011;49567;48.958;8.294;2023-05-10T06:53:46;1.25;;;1.15;;
63438;SDS011;49567;48.958;8.294;2023-05-10T06:56:11;1.07;;;1.07;;
63438;SDS011;49567;48.958;8.294;2023-05-10T06:58:36;1.35;;;1.00;;
63438;SDS011;49567;48.958;8.294;2023-05-10T07:01:03;1.10;;;0.80;;
63438;SDS011;49567;48.958;8.294;2023-05-10T07:03:30;2.40;;;0.98;;
63438;SDS011;49567;48.958;8.294;2023-05-10T07:05:59;1.40;;;0.80;;
63438;SDS011;49567;48.958;8.294;2023-05-10T07:08:29;2.10;;;0.90;;
63438;SDS011;49567;48.958;8.294;2023-05-10T07:11:04;0.97;;;0.67;;
63438;SDS011;49567;48.958;8.294;2023-05-10T07:13:32;0.80;;;0.50;;
63438;SDS011;49567;48.958;8.294;2023-05-10T07:15:58;0.80;;;0.50;;
63438;SDS011;49567;48.958;8.294;2023-05-10T07:18:25;0.85;;;0.50;;
63438;SDS011;49567;48.958;8.294;2023-05-10T07:20:50;2.45;;;0.40;;
63438;SDS011;49567;48.958;8.294;2023-05-10T07:23:16;0.40;;;0.40;;
63438;SDS011;49567;48.958;8.294;2023-05-10T07:25:44;0.30;;;0.27;;
63438;SDS011;49567;48.958;8.294;2023-05-10T07:28:13;0.50;;;0.50;;
63438;SDS011;49567;48.958;8.294;2023-05-10T07:30:39;1.67;;;0.28;;
63438;SDS011;49567;48.958;8.294;2023-05-10T07:33:04;0.87;;;0.70;;
63438;SDS011;49567;48.958;8.294;2023-05-10T07:35:29;0.63;;;0.37;;
63438;SDS011;49567;48.958;8.294;2023-05-10T07:37:54;0.90;;;0.30;;
63438;SDS011;49567;48.958;8.294;2023-05-10T07:40:20;0.40;;;0.37;;
63438;SDS011;49567;48.958;8.294;2023-05-10T07:42:45;1.00;;;0.90;;
63438;SDS011;49567;48.958;8.294;2023-05-10T07:45:11;0.30;;;0.30;;
63438;SDS011;49567;48.958;8.294;2023-05-10T07:47:36;0.50;;;0.37;;
63438;SDS011;49567;48.958;8.294;2023-05-10T07:50:01;0.93;;;0.40;;
63438;SDS011;49567;48.958;8.294;2023-05-10T07:52:26;0.90;;;0.43;;
63438;SDS011;49567;48.958;8.294;2023-05-10T07:54:52;0.40;;;0.40;;
63438;SDS011;49567;48.958;8.294;2023-05-10T07:57:18;1.42;;;0.40;;
63438;SDS011;49567;48.958;8.294;2023-05-10T07:59:43;0.90;;;0.40;;
63438;SDS011;49567;48.958;8.294;2023-05-10T08:02:09;1.98;;;0.40;;
63438;SDS011;49567;48.958;8.294;2023-05-10T08:04:35;0.57;;;0.57;;
63438;SDS011;49567;48.958;8.294;2023-05-10T08:07:00;4.10;;;0.60;;
63438;SDS011;49567;48.958;8.294;2023-05-10T08:09:25;0.53;;;0.20;;
63438;SDS011;49567;48.958;8.294;2023-05-10T08:11:50;1.00;;;0.40;;
63438;SDS011;49567;48.958;8.294;2023-05-10T08:14:20;0.90;;;0.30;;
63438;SDS011;49567;48.958;8.294;2023-05-10T08:16:45;0.30;;;0.20;;
63438;SDS011;49567;48.958;8.294;2023-05-10T08:19:10;1.20;;;0.40;;
63438;SDS011;49567;48.958;8.294;2023-05-10T08:21:35;1.00;;;0.40;;
63438;SDS011;49567;48.958;8.294;2023-05-10T08:24:01;1.10;;;0.27;;
63438;SDS011;49567;48.958;8.294;2023-05-10T08:26:26;1.00;;;0.60;;
63438;SDS011;49567;48.958;8.294;2023-05-10T08:28:51;0.70;;;0.57;;
63438;SDS011;49567;48.958;8.294;2023-05-10T08:31:17;2.50;;;0.40;;
63438;SDS011;49567;48.958;8.294;2023-05-10T08:33:43;2.17;;;0.40;;
63438;SDS011;49567;48.958;8.294;2023-05-10T08:36:08;1.30;;;0.30;;
63438;SDS011;49567;48.958;8.294;2023-05-10T08:38:33;0.67;;;0.40;;
63438;SDS011;49567;48.958;8.294;2023-05-10T08:40:59;2.80;;;0.40;;
63438;SDS011;49567;48.958;8.294;2023-05-10T08:43:27;0.20;;;0.20;;
63438;SDS011;49567;48.958;8.294;2023-05-10T08:45:56;1.50;;;0.30;;
63438;SDS011;49567;48.958;8.294;2023-05-10T08:48:24;0.35;;;0.35;;
63438;SDS011;49567;48.958;8.294;2023-05-10T08:50:50;0.82;;;0.30;;
63438;SDS011;49567;48.958;8.294;2023-05-10T08:53:18;0.20;;;0.20;;
63438;SDS011;49567;48.958;8.294;2023-05-10T08:55:44;0.50;;;0.50;;
63438;SDS011;49567;48.958;8.294;2023-05-10T08:58:09;0.20;;;0.20;;
63438;SDS011;49567;48.958;8.294;2023-05-10T09:00:35;5.70;;;0.37;;
63438;SDS011;49567;48.958;8.294;2023-05-10T09:03:02;1.17;;;0.30;;
63438;SDS011;49567;48.958;8.294;2023-05-10T09:05:28;1.00;;;0.10;;
63438;SDS011;49567;48.958;8.294;2023-05-10T09:07:53;0.30;;;0.25;;
63438;SDS011;49567;48.958;8.294;2023-05-10T09:10:19;0.30;;;0.20;;
63438;SDS011;49567;48.958;8.294;2023-05-10T09:12:45;0.30;;;0.30;;
63438;SDS011;49567;48.958;8.294;2023-05-10T09:15:10;0.40;;;0.20;;
63438;SDS011;49567;48.958;8.294;2023-05-10T09:17:37;0.30;;;0.30;;
63438;SDS011;49567;48.958;8.294;2023-05-10T09:20:05;0.20;;;0.20;;
63438;SDS011;49567;48.958;8.294;2023-05-10T09:22:31;0.98;;;0.35;;
63438;SDS011;49567;48.958;8.294;2023-05-10T09:27:35;0.80;;;0.40;;
63438;SDS011;49567;48.958;8.294;2023-05-10T09:30:02;0.50;;;0.20;;
63438;SDS011;49567;48.958;8.294;2023-05-10T09:35:08;0.90;;;0.30;;
63438;SDS011;49567;48.958;8.294;2023-05-10T09:37:40;0.90;;;0.25;;
63438;SDS011;49567;48.958;8.294;2023-05-10T09:40:07;1.20;;;0.25;;
63438;SDS011;49567;48.958;8.294;2023-05-10T09:42:35;0.40;;;0.40;;
63438;SDS011;49567;48.958;8.294;2023-05-10T09:45:02;1.37;;;0.63;;
63438;SDS011;49567;48.958;8.294;2023-05-10T09:47:28;2.30;;;0.27;;
63438;SDS011;49567;48.958;8.294;2023-05-10T09:49:54;0.40;;;0.30;;
63438;SDS011;49567;48.958;8.294;2023-05-10T09:52:22;1.13;;;0.43;;
63438;SDS011;49567;48.958;8.294;2023-05-10T09:54:54;1.33;;;0.40;;
63438;SDS011;49567;48.958;8.294;2023-05-10T09:57:20;2.23;;;0.60;;
63438;SDS011;49567;48.958;8.294;2023-05-10T09:59:47;0.40;;;0.40;;
63438;SDS011;49567;48.958;8.294;2023-05-10T10:02:12;0.70;;;0.70;;
63438;SDS011;49567;48.958;8.294;2023-05-10T10:04:39;1.30;;;0.50;;
63438;SDS011;49567;48.958;8.294;2023-05-10T10:07:05;1.20;;;0.60;;
63438;SDS011;49567;48.958;8.294;2023-05-10T10:09:31;1.37;;;0.40;;
63438;SDS011;49567;48.958;8.294;2023-05-10T10:11:57;0.57;;;0.40;;
63438;SDS011;49567;48.958;8.294;2023-05-10T10:14:24;0.45;;;0.30;;
63438;SDS011;49567;48.958;8.294;2023-05-10T10:16:51;2.90;;;0.50;;
63438;SDS011;49567;48.958;8.294;2023-05-10T10:19:17;1.55;;;0.52;;
63438;SDS011;49567;48.958;8.294;2023-05-10T10:21:43;0.45;;;0.45;;
63438;SDS011;49567;48.958;8.294;2023-05-10T10:24:08;2.03;;;0.50;;
63438;SDS011;49567;48.958;8.294;2023-05-10T10:26:34;1.10;;;0.70;;
63438;SDS011;49567;48.958;8.294;2023-05-10T10:29:16;1.00;;;0.80;;
63438;SDS011;49567;48.958;8.294;2023-05-10T10:32:21;3.35;;;0.90;;
63438;SDS011;49567;48.958;8.294;2023-05-10T10:34:55;3.00;;;0.88;;
63438;SDS011;49567;48.958;8.294;2023-05-10T10:37:21;3.10;;;1.13;;
63438;SDS011;49567;48.958;8.294;2023-05-10T10:39:47;1.20;;;0.80;;
63438;SDS011;49567;48.958;8.294;2023-05-10T10:42:13;2.00;;;0.88;;
63438;SDS011;49567;48.958;8.294;2023-05-10T10:44:38;2.23;;;0.97;;
63438;SDS011;49567;48.958;8.294;2023-05-10T10:49:38;1.73;;;0.73;;
63438;SDS011;49567;48.958;8.294;2023-05-10T10:55:00;0.60;;;0.60;;
63438;SDS011;49567;48.958;8.294;2023-05-10T10:57:48;3.00;;;0.93;;
63438;SDS011;49567;48.958;8.294;2023-05-10T11:07:56;1.40;;;0.80;;
63438;SDS011;49567;48.958;8.294;2023-05-10T11:10:23;1.70;;;0.68;;
63438;SDS011;49567;48.958;8.294;2023-05-10T11:13:01;2.97;;;0.80;;
63438;SDS011;49567;48.958;8.294;2023-05-10T11:15:35;1.52;;;0.70;;
63438;SDS011;49567;48.958;8.294;2023-05-10T11:18:16;4.00;;;0.73;;
63438;SDS011;49567;48.958;8.294;2023-05-10T11:20:58;1.50;;;0.57;;
63438;SDS011;49567;48.958;8.294;2023-05-10T11:26:08;1.75;;;0.50;;
63438;SDS011;49567;48.958;8.294;2023-05-10T11:28:34;1.20;;;0.50;;
63438;SDS011;49567;48.958;8.294;2023-05-10T11:31:06;2.40;;;0.30;;
63438;SDS011;49567;48.958;8.294;2023-05-10T11:33:31;1.63;;;0.40;;
63438;SDS011;49567;48.958;8.294;2023-05-10T11:36:10;2.75;;;0.30;;
63438;SDS011;49567;48.958;8.294;2023-05-10T11:38:36;0.82;;;0.20;;
63438;SDS011;49567;48.958;8.294;2023-05-10T11:41:01;0.70;;;0.30;;
63438;SDS011;49567;48.958;8.294;2023-05-10T11:43:26;1.90;;;0.20;;
63438;SDS011;49567;48.958;8.294;2023-05-10T11:45:55;1.38;;;0.20;;
63438;SDS011;49567;48.958;8.294;2023-05-10T11:48:20;0.75;;;0.30;;
63438;SDS011;49567;48.958;8.294;2023-05-10T11:50:48;1.37;;;0.23;;
63438;SDS011;49567;48.958;8.294;2023-05-10T11:53:14;0.40;;;0.40;;
63438;SDS011;49567;48.958;8.294;2023-05-10T11:55:39;0.90;;;0.30;;
63438;SDS011;49567;48.958;8.294;2023-05-10T11:58:04;0.60;;;0.50;;
63438;SDS011;49567;48.958;8.294;2023-05-10T12:00:30;0.60;;;0.30;;
63438;SDS011;49567;48.958;8.294;2023-05-10T12:02:56;1.92;;;1.35;;
63438;SDS011;49567;48.958;8.294;2023-05-10T12:05:22;295.47;;;77.80;;
63438;SDS011;49567;48.958;8.294;2023-05-10T12:07:48;1999.90;;;878.90;;
63438;SDS011;49567;48.958;8.294;2023-05-10T12:10:13;1999.90;;;842.20;;
63438;SDS011;49567;48.958;8.294;2023-05-10T12:12:47;1999.90;;;883.55;;
63438;SDS011;49567;48.958;8.294;2023-05-10T12:15:17;1999.90;;;710.42;;
63438;SDS011;49567;48.958;8.294;2023-05-10T12:17:44;1999.90;;;906.42;;
63438;SDS011;49567;48.958;8.294;2023-05-10T12:20:13;1999.90;;;579.23;;
63438;SDS011;49567;48.958;8.294;2023-05-10T12:22:39;1999.90;;;813.90;;
63438;SDS011;49567;48.958;8.294;2023-05-10T12:25:05;1999.90;;;999.90;;
63438;SDS011;49567;48.958;8.294;2023-05-10T12:27:32;1999.90;;;999.90;;
63438;SDS011;49567;48.958;8.294;2023-05-10T12:29:59;1999.90;;;999.90;;
63438;SDS011;49567;48.958;8.294;2023-05-10T12:32:36;1999.90;;;999.90;;
63438;SDS011;49567;48.958;8.294;2023-05-10T12:35:04;1999.90;;;999.90;;
63438;SDS011;49567;48.958;8.294;2023-05-10T12:37:30;1999.90;;;999.90;;
63438;SDS011;49567;48.958;8.294;2023-05-10T12:39:55;1999.90;;;999.90;;
63438;SDS011;49567;48.958;8.294;2023-05-10T12:42:21;1999.90;;;999.90;;
63438;SDS011;49567;48.958;8.294;2023-05-10T12:44:46;1999.90;;;999.90;;
63438;SDS011;49567;48.958;8.294;2023-05-10T12:47:11;1999.90;;;999.90;;
63438;SDS011;49567;48.958;8.294;2023-05-10T12:49:37;1999.90;;;999.90;;
63438;SDS011;49567;48.958;8.294;2023-05-10T12:52:02;1999.90;;;999.90;;
63438;SDS011;49567;48.958;8.294;2023-05-10T12:54:27;1999.90;;;999.90;;
63438;SDS011;49567;48.958;8.294;2023-05-10T12:56:52;1999.90;;;999.90;;
63438;SDS011;49567;48.958;8.294;2023-05-10T12:59:18;1999.90;;;999.90;;
63438;SDS011;49567;48.958;8.294;2023-05-10T13:01:43;1999.90;;;640.20;;
63438;SDS011;49567;48.958;8.294;2023-05-10T13:04:08;1999.90;;;783.17;;
63438;SDS011;49567;48.958;8.294;2023-05-10T13:06:34;1999.90;;;999.90;;
63438;SDS011;49567;48.958;8.294;2023-05-10T13:09:00;1999.90;;;829.57;;
63438;SDS011;49567;48.958;8.294;2023-05-10T13:11:25;1999.90;;;999.90;;
63438;SDS011;49567;48.958;8.294;2023-05-10T13:13:51;1999.90;;;410.87;;
63438;SDS011;49567;48.958;8.294;2023-05-10T13:16:16;1999.90;;;830.97;;
63438;SDS011;49567;48.958;8.294;2023-05-10T13:18:41;1880.60;;;866.60;;
63438;SDS011;49567;48.958;8.294;2023-05-10T13:21:07;1999.90;;;984.42;;
63438;SDS011;49567;48.958;8.294;2023-05-10T13:23:32;139.87;;;124.07;;
63438;SDS011;49567;48.958;8.294;2023-05-10T13:25:57;1999.90;;;999.90;;
63438;SDS011;49567;48.958;8.294;2023-05-10T13:28:23;1999.90;;;999.90;;
63438;SDS011;49567;48.958;8.294;2023-05-10T13:30:48;1999.90;;;999.90;;
63438;SDS011;49567;48.958;8.294;2023-05-10T13:33:13;1999.90;;;999.90;;
63438;SDS011;49567;48.958;8.294;2023-05-10T13:35:38;1999.90;;;999.90;;
63438;SDS011;49567;48.958;8.294;2023-05-10T13:38:04;1999.90;;;999.90;;
63438;SDS011;49567;48.958;8.294;2023-05-10T13:40:32;801.17;;;531.75;;
63438;SDS011;49567;48.958;8.294;2023-05-10T13:42:57;1225.67;;;677.30;;
63438;SDS011;49567;48.958;8.294;2023-05-10T13:45:25;1999.90;;;999.90;;
63438;SDS011;49567;48.958;8.294;2023-05-10T13:47:50;1050.33;;;400.60;;
63438;SDS011;49567;48.958;8.294;2023-05-10T13:50:16;1999.90;;;999.90;;
63438;SDS011;49567;48.958;8.294;2023-05-10T13:52:42;1999.90;;;999.90;;
63438;SDS011;49567;48.958;8.294;2023-05-10T13:55:08;1999.90;;;999.90;;
63438;SDS011;49567;48.958;8.294;2023-05-10T13:57:33;1999.90;;;999.90;;
63438;SDS011;49567;48.958;8.294;2023-05-10T14:00:00;1999.90;;;999.90;;
63438;SDS011;49567;48.958;8.294;2023-05-10T14:02:26;1999.90;;;999.90;;
63438;SDS011;49567;48.958;8.294;2023-05-10T14:04:52;1999.90;;;999.90;;
63438;SDS011;49567;48.958;8.294;2023-05-10T14:07:17;1999.90;;;999.90;;
63438;SDS011;49567;48.958;8.294;2023-05-10T14:09:42;1999.90;;;999.90;;
63438;SDS011;49567;48.958;8.294;2023-05-10T14:12:08;1999.90;;;999.90;;
63438;SDS011;49567;48.958;8.294;2023-05-10T14:14:33;1999.90;;;999.90;;
63438;SDS011;49567;48.958;8.294;2023-05-10T14:16:58;1999.90;;;999.90;;
63438;SDS011;49567;48.958;8.294;2023-05-10T14:19:24;1999.90;;;999.90;;
63438;SDS011;49567;48.958;8.294;2023-05-10T14:21:49;1999.90;;;750.80;;
63438;SDS011;49567;48.958;8.294;2023-05-10T14:24:16;1999.90;;;999.90;;
63438;SDS011;49567;48.958;8.294;2023-05-10T14:26:42;9.57;;;9.03;;
63438;SDS011;49567;48.958;8.294;2023-05-10T14:29:07;271.87;;;227.30;;
63438;SDS011;49567;48.958;8.294;2023-05-10T14:31:32;455.93;;;345.70;;
63438;SDS011;49567;48.958;8.294;2023-05-10T14:33:57;1999.90;;;999.90;;
63438;SDS011;49567;48.958;8.294;2023-05-10T14:36:24;1999.90;;;999.90;;
63438;SDS011;49567;48.958;8.294;2023-05-10T14:38:49;1999.90;;;803.40;;
63438;SDS011;49567;48.958;8.294;2023-05-10T14:41:15;1999.90;;;999.90;;
63438;SDS011;49567;48.958;8.294;2023-05-10T14:43:42;471.13;;;359.57;;
63438;SDS011;49567;48.958;8.294;2023-05-10T14:46:07;1999.90;;;999.90;;
63438;SDS011;49567;48.958;8.294;2023-05-10T14:48:33;1999.90;;;999.90;;
63438;SDS011;49567;48.958;8.294;2023-05-10T14:50:58;1999.90;;;999.90;;
63438;SDS011;49567;48.958;8.294;2023-05-10T14:53:24;1999.90;;;999.90;;
63438;SDS011;49567;48.958;8.294;2023-05-10T14:55:49;1999.90;;;999.90;;
63438;SDS011;49567;48.958;8.294;2023-05-10T14:58:14;1999.90;;;999.90;;
63438;SDS011;49567;48.958;8.294;2023-05-10T15:00:40;1999.90;;;999.90;;
63438;SDS011;49567;48.958;8.294;2023-05-10T15:03:05;1999.90;;;999.90;;